Hoppa till innehåll

METAR väder och rapporter - ESGG

Nedan listas information från vald flygplats. Andra METARs finns längre ned på sidan. Kontakta oss om någon saknas eller skriv in egen ICAO-kod.

Andra intressanta METARs

Klicka på önskad rubrik nedan för att visa nuvarande väder för den platsen.

Avstånd från stationen: NO 27kmESGG - Göteborg (Landvetter)
Uppdaterad: 2018-11-16 08:50
 Vind från SSO
Vind: SSO 13 km/h
Temperatur: 4°C
Vindavkylning: 1°C
Daggpunkt: 3°C
Luftfuktighet: 93%
Barometer: 1034 hPa
Summering: Klart
Sikt: mer än 10 km
2018/11/16 07:50 ESGG 160750Z 15007KT CAVOK 04/03 Q1034 R21/19//95
Klart
Klart
  Visa detaljer för Göteborg (Landvetter)
Avstånd från stationen: N 28kmESGP - Göteborg (Säve)
Uppdaterad: 2017-01-02 11:20
Ej aktuell
 Vind från calm
Vind: Vindstilla
Temperatur: -2°C
Daggpunkt: -4°C
Luftfuktighet: 86%
Barometer: 1012 hPa
Moln: Klart
Sikt: 10 km
2017/01/02 10:20 ESGP 021020Z AUTO 00000KT 9999 NCD M02/M04 Q1012
Klart
Klart
  Visa detaljer för Göteborg (Säve)
Avstånd från stationen: NO 419kmESSA - Stockholm (Arlanda)
Uppdaterad: 2018-11-16 08:50
 Vind från VSV
Vind: VSV 24 km/h
Temperatur: 8°C
Vindavkylning: 4°C
Daggpunkt: 6°C
Luftfuktighet: 87%
Barometer: 1034 hPa
Summering: Klart
Sikt: mer än 10 km
2018/11/16 07:50 ESSA 160750Z 25013KT CAVOK 08/06 Q1034 R01L/19//95 R08/19//95 R01R/19//95 NOSIG
Klart
Klart
  Visa detaljer för Stockholm (Arlanda)
Avstånd från stationen: ONO 404kmESSB - Stockholm (Bromma)
Uppdaterad: 2018-11-16 08:50
 Vind från SSV
Vind: SSV 11 km/h
Temperatur: 8°C
Vindavkylning: 6°C
Daggpunkt: 7°C
Luftfuktighet: 93%
Barometer: 1034 hPa
Summering: Klart
Sikt: mer än 10 km
2018/11/16 07:50 ESSB 160750Z 21006KT 180V250 CAVOK 08/07 Q1034 R30/19//95
Klart
Klart
  Visa detaljer för Stockholm (Bromma)
Avstånd från stationen: ONO 323kmESKN - Stockholm (Skavsta)
Uppdaterad: 2018-11-16 08:50
 Vind från VSV
Vind: VSV 17 km/h
Temperatur: 7°C
Vindavkylning: 4°C
Daggpunkt: 5°C
Luftfuktighet: 87%
Barometer: 1035 hPa
Summering: Klart
Sikt: mer än 10 km
2018/11/16 07:50 ESKN 160750Z 25009KT CAVOK 07/05 Q1035 R26/19//95
Klart
Klart
  Visa detaljer för Stockholm (Skavsta)
Avstånd från stationen: SSO 238kmESMS - Malmö flygplats (Sturup)
Uppdaterad: 2018-11-16 08:50
 Vind från SSO
Vind: SSO 15 km/h
Temperatur: 8°C
Vindavkylning: 5°C
Daggpunkt: 4°C
Luftfuktighet: 76%
Barometer: 1036 hPa
Summering: Klart
Sikt: mer än 10 km
2018/11/16 07:50 ESMS 160750Z 15008KT CAVOK 08/04 Q1036
Klart
Klart
  Visa detaljer för Malmö flygplats (Sturup)
Avstånd från stationen: O 382kmESSV - Visby flygplats
Uppdaterad: 2018-11-16 08:50
 Vind från SV
Vind: SV 17 km/h
Temperatur: 7°C
Vindavkylning: 4°C
Daggpunkt: 6°C
Luftfuktighet: 93%
Barometer: 1038 hPa
Moln: Övervägande molnigt
Sikt: 10 km
Molninformation: Några få moln 213 m
Övervägande molnigt 1402 m
2018/11/16 07:50 ESSV 160750Z 22009KT 9999 FEW007 BKN046 07/06 Q1038
Övervägande molnigt
Övervägande molnigt
  Visa detaljer för Visby flygplats
Avstånd från stationen: NNO 92kmESGT - Trollhättan
Uppdaterad: 2018-11-16 08:50
 Vind från SV
Vind: SV 6 km/h
Temperatur: 5°C
Daggpunkt: 4°C
Luftfuktighet: 93%
Barometer: 1034 hPa
Summering: Klart
Sikt: mer än 10 km
2018/11/16 07:50 ESGT 160750Z 23003KT 180V270 CAVOK 05/04 Q1034
Klart
Klart
  Visa detaljer för Trollhättan
Avstånd från stationen: ONO 129kmESGJ - Jönköpings flygplats
Uppdaterad: 2018-11-16 08:50
 Vind från S
Vind: S 11 km/h
Temperatur: 4°C
Vindavkylning: 1°C
Daggpunkt: 4°C
Luftfuktighet: 100%
Barometer: 1035 hPa
Summering: Dimmigt
Moln: Delvis molnigt
Sikt: 8 km
2018/11/16 07:50 ESGJ 160750Z 18006KT 8000 BR NSC 04/04 Q1035
Dimmigt, Delvis molnigt
Dimmigt
Delvis molnigt
  Visa detaljer för Jönköpings flygplats
Avstånd från stationen: NNO 229kmESOK - Karlstad
Uppdaterad: 2018-11-16 08:50
 Vind från SSV
Vind: SSV 13 km/h
Temperatur: 7°C
Vindavkylning: 5°C
Daggpunkt: 7°C
Luftfuktighet: 100%
Barometer: 1033 hPa
Moln: Övervägande molnigt
Sikt: 10 km
Molninformation: Övervägande molnigt 488 m
2018/11/16 07:50 ESOK 160750Z 21007KT 9999 BKN016 07/07 Q1033
Övervägande molnigt
Övervägande molnigt
  Visa detaljer för Karlstad
Avstånd från stationen: N 643kmESNZ - Östersund (Frösön)
Uppdaterad: 2018-11-16 08:50
 Vind från SSV
Vind: SSV 19 km/h
Temperatur: 5°C
Vindavkylning: 1°C
Daggpunkt: 2°C
Luftfuktighet: 81%
Barometer: 1022 hPa
Summering: Klart
Sikt: mer än 10 km
2018/11/16 07:50 ESNZ 160750Z 20010KT CAVOK 05/02 Q1022
Klart
Klart
  Visa detaljer för Östersund (Frösön)
Avstånd från stationen: SSO 216kmEKCH - Köpenhamn (Kastrup)
Uppdaterad: 2018-11-16 08:50
 Vind från SSO
Vind: SSO 26 km/h
Temperatur: 9°C
Vindavkylning: 6°C
Daggpunkt: 4°C
Luftfuktighet: 71%
Barometer: 1036 hPa
Summering: Klart
Sikt: mer än 10 km
2018/11/16 07:50 EKCH 160750Z 16014KT CAVOK 09/04 Q1036 NOSIG
Klart
Klart
  Visa detaljer för Köpenhamn (Kastrup)
Avstånd från stationen: SV 263kmEKBI - Billund Airport
Uppdaterad: 2018-11-16 08:50
 Vind från OSO
Vind: OSO 17 km/h
Temperatur: 5°C
Vindavkylning: 2°C
Daggpunkt: 5°C
Luftfuktighet: 100%
Barometer: 1031 hPa
Summering: Dimmigt
Moln: Övervägande molnigt
Sikt: 5 km
Molninformation: Övervägande molnigt 122 m
2018/11/16 07:50 EKBI 160750Z 12009KT 5000 BR BKN004 05/05 Q1031
Dimmigt, Övervägande molnigt
Dimmigt
Övervägande molnigt
  Visa detaljer för Billund Airport
Avstånd från stationen: N 302kmENGM - Oslo (Gardermoen)
Uppdaterad: 2018-11-16 08:50
 Vind från S
Vind: S 19 km/h
Temperatur: 6°C
Vindavkylning: 3°C
Daggpunkt: 5°C
Luftfuktighet: 93%
Barometer: 1031 hPa
Moln: Delvis molnigt
Sikt: 10 km
Molninformation: Delvis molnigt 427 m
Delvis molnigt 579 m
2018/11/16 07:50 ENGM 160750Z 19010KT 9999 SCT014 SCT019 06/05 Q1031 TEMPO BKN014
Delvis molnigt
Delvis molnigt
  Visa detaljer för Oslo (Gardermoen)
Avstånd från stationen: NO 540kmEFMA - Mariehamn / Åland
Uppdaterad: 2018-11-16 08:50
 Vind från SSV
Vind: SSV 15 km/h
Temperatur: 8°C
Vindavkylning: 5°C
Daggpunkt: 7°C
Luftfuktighet: 93%
Barometer: 1033 hPa
Summering: Klart
Sikt: mer än 10 km
2018/11/16 07:50 EFMA 160750Z 21008KT CAVOK 08/07 Q1033
Klart
Klart
  Visa detaljer för Mariehamn / Åland
Avstånd från stationen: S 558kmEDDT - Berlin (Tegel), Germany
Uppdaterad: 2018-11-16 08:50
 Vind från OSO
Vind: OSO 19 km/h
Temperatur: 5°C
Vindavkylning: 1°C
Daggpunkt: 2°C
Luftfuktighet: 81%
Barometer: 1035 hPa
Summering: Klart
Sikt: mer än 10 km
2018/11/16 07:50 EDDT 160750Z 12010KT CAVOK 05/02 Q1035 NOSIG
Klart
Klart
  Visa detaljer för Berlin (Tegel), Germany
Avstånd från stationen: SV 737kmEHAM - Amsterdam (Schiphol)
Uppdaterad: 2018-11-16 08:55
 Vind från SO
Vind: SO 13 km/h
Temperatur: 3°C
Vindavkylning: -1°C
Daggpunkt: 2°C
Luftfuktighet: 93%
Barometer: 1028 hPa
Summering: Dimma
Moln: Genommulet
Sikt: 1 km
Molninformation: Genommulet 30 m
2018/11/16 07:55 EHAM 160755Z 13007KT 0600 R18C/0800N R27/0900N R18R/0650N R06/0700N FG OVC001 03/02 Q1028 NOSIG
Dimma, Genommulet
Dimma
Genommulet
  Visa detaljer för Amsterdam (Schiphol)
Avstånd från stationen: ONO 808kmEFHK - Helsingfors (Vantaa)
Uppdaterad: 2018-11-16 08:50
 Vind från SSV
Vind: SSV 22 km/h
Temperatur: 9°C
Vindavkylning: 6°C
Daggpunkt: 8°C
Luftfuktighet: 94%
Barometer: 1034 hPa
Moln: Övervägande molnigt
Sikt: 10 km
Molninformation: Övervägande molnigt 244 m
2018/11/16 07:50 EFHK 160750Z 21012KT 9999 BKN008 09/08 Q1034 NOSIG
Övervägande molnigt
Övervägande molnigt
  Visa detaljer för Helsingfors (Vantaa)
Avstånd från stationen: SSV 537kmEDDW - Bremen
Uppdaterad: 2018-11-16 08:50
 Vind från OSO
Vind: OSO 9 km/h
Temperatur: 3°C
Vindavkylning: 0°C
Daggpunkt: 2°C
Luftfuktighet: 93%
Barometer: 1030 hPa
Moln: Delvis molnigt
Sikt: 7 km
2018/11/16 07:50 EDDW 160750Z 11005KT 7000 NSC 03/02 Q1030 NOSIG
Delvis molnigt
Delvis molnigt
  Visa detaljer för Bremen
Avstånd från stationen: SSV 861kmEDDF - Frankfurt am Main
Uppdaterad: 2018-11-16 08:50
 Vind från NNO
Vind: NNO 13 km/h
Temperatur: 4°C
Vindavkylning: 1°C
Daggpunkt: 2°C
Luftfuktighet: 87%
Barometer: 1030 hPa
Summering: Klart
Sikt: mer än 10 km
2018/11/16 07:50 EDDF 160750Z 03007KT CAVOK 04/02 Q1030 NOSIG
Klart
Klart
  Visa detaljer för Frankfurt am Main
Avstånd från stationen: SV 880kmEBBR - Bryssel international
Uppdaterad: 2018-11-16 08:50
 Vind från SO
Vind: SO 6 km/h
Temperatur: 5°C
Daggpunkt: 5°C
Luftfuktighet: 100%
Barometer: 1027 hPa
Summering: Lätt duggregn, Dimma
Moln: Övervägande molnigt
Sikt: 1 km
Molninformation: Delvis molnigt 30 m
Övervägande molnigt 61 m
2018/11/16 07:50 EBBR 160750Z 14003KT 110V180 0500 R25L/1100D R25R/1700D R01/1100N -DZ FG SCT001 BKN002 05/05 Q1027 TEMPO 0800 FG
Lätt duggregn, Dimma, Övervägande molnigt
Lätt duggregn
Dimma
Övervägande molnigt
  Visa detaljer för Bryssel international
Avstånd från stationen: SV 738kmEHAM - Amsterdam (Schiphol)
Uppdaterad: 2018-11-16 08:55
 Vind från SO
Vind: SO 13 km/h
Temperatur: 3°C
Vindavkylning: -1°C
Daggpunkt: 2°C
Luftfuktighet: 93%
Barometer: 1028 hPa
Summering: Dimma
Moln: Genommulet
Sikt: 1 km
Molninformation: Genommulet 30 m
2018/11/16 07:55 EHAM 160755Z 13007KT 0600 R18C/0800N R27/0900N R18R/0650N R06/0700N FG OVC001 03/02 Q1028 NOSIG
Dimma, Genommulet
Dimma
Genommulet
  Visa detaljer för Amsterdam (Schiphol)
Avstånd från stationen: SV 1044kmEGLL - London (Heathrow)
Uppdaterad: 2018-11-16 08:50
 Vind från O
Vind: O 6 km/h
Temperatur: 11°C
Daggpunkt: 10°C
Luftfuktighet: 94%
Barometer: 1025 hPa
Summering: Dimmigt
Moln: Genommulet
Sikt: 3 km
Molninformation: Några få moln 122 m
Genommulet 244 m
2018/11/16 07:50 EGLL 160750Z 09003KT 3000 BR FEW004 OVC008 11/10 Q1025
Dimmigt, Genommulet
Dimmigt
Genommulet
  Visa detaljer för London (Heathrow)
Avstånd från stationen: SV 1132kmLFPG - Paris (Charles de Gaulle)
Uppdaterad: 2018-11-16 09:00
 Vind från O
Vind: O 13 km/h
Temperatur: 6°C
Vindavkylning: 3°C
Daggpunkt: 6°C
Luftfuktighet: 100%
Barometer: 1025 hPa
Summering: Dimma
Sikt: 0 km
2018/11/16 08:00 LFPG 160800Z 08007KT 0450 R27L/0550D R09R/0600N R26R/0500N R08L/0700N R26L/0600N R08R/0500N R27R/0500N R09L/0600U FG VV/// 06/06 Q1025 NOSIG
Dimma
Dimma
  Visa detaljer för Paris (Charles de Gaulle)
Avstånd från stationen: SSV 1142kmLSZH - Zürich Airport
Uppdaterad: 2018-11-16 08:50
 Vind från NNO
Vind: NNO 9 km/h
Temperatur: 4°C
Vindavkylning: 2°C
Daggpunkt: 3°C
Luftfuktighet: 93%
Barometer: 1027 hPa
Moln: Genommulet
Sikt: 6 km
Molninformation: Några få moln 183 m
Genommulet 213 m
2018/11/16 07:50 LSZH 160750Z 02005KT 6000 FEW006 OVC007 04/03 Q1027 NOSIG
Genommulet
Genommulet
  Visa detaljer för Zürich Airport
Avstånd från stationen: S 1749kmLIRF - Rome Airport (Fiumicino - Leonardo da Vinci)
Uppdaterad: 2018-11-16 08:50
 Vind från NNO
Vind: NNO 13 km/h
Temperatur: 13°C
Daggpunkt: 9°C
Luftfuktighet: 77%
Barometer: 1020 hPa
Summering: Klart
Sikt: mer än 10 km
2018/11/16 07:50 LIRF 160750Z 02007KT CAVOK 13/09 Q1020 NOSIG
Klart
Klart
  Visa detaljer för Rome Airport (Fiumicino - Leonardo da Vinci)
Avstånd från stationen: SO 2679kmLTAI - Antalya
Uppdaterad: 2018-11-16 08:50
 Vind från NV
Vind: NV 37 km/h
Temperatur: 16°C
Daggpunkt: -1°C
Luftfuktighet: 31%
Barometer: 1017 hPa
Summering: Klart
Sikt: mer än 10 km
2018/11/16 07:50 LTAI 160750Z 32020KT CAVOK 16/M01 Q1017 NOSIG
Klart
Klart
  Visa detaljer för Antalya
Avstånd från stationen: VSV 6074kmKJFK - New Your (JFK)
Uppdaterad: 2018-11-16 08:51
 Vind från ONO
Vind: ONO 43 km/h
Vindby: 52 km/h
Temperatur: 5°C
Vindavkylning: -1°C
Daggpunkt: 4°C
Luftfuktighet: 93%
Barometer: 1001 hPa
Summering: Lätt regn
Moln: Genommulet
Sikt: 11 km
Molninformation: Genommulet 305 m
2018/11/16 07:51 KJFK 160751Z 06023G28KT 7SM -RA OVC010 05/04 A2956 RMK AO2 PK WND 06028/0750 PRESFR SLP009 P0001 T00500044 $
Lätt regn, Genommulet
Lätt regn
Genommulet
  Visa detaljer för New Your (JFK)
Avstånd från stationen: VSV 8848kmKLAX - Los Angeles International Airport
Uppdaterad: 2018-11-16 08:53
 Vind från O
Vind: O 13 km/h
Temperatur: 16°C
Daggpunkt: 9°C
Luftfuktighet: 63%
Barometer: 1016.3 hPa
Moln: Delvis molnigt
Sikt: 16 km
Molninformation: Några få moln 5182 m
Några få moln 6706 m
Delvis molnigt 8534 m
2018/11/16 07:53 KLAX 160753Z 10007KT 10SM FEW170 FEW220 SCT280 16/09 A3001 RMK AO2 SLP158 T01610089 402610122
Delvis molnigt
Delvis molnigt
  Visa detaljer för Los Angeles International Airport
Avstånd från stationen: SO 4968kmOMDB - Dubai International Airport
Uppdaterad: 2018-11-16 09:00
 Vind från S
Vind: S 11 km/h
Temperatur: 33°C
Daggpunkt: 12°C
Luftfuktighet: 28%
Barometer: 1017 hPa
Summering: Klart
Sikt: mer än 10 km
2018/11/16 08:00 OMDB 160800Z 19006KT 160V220 CAVOK 33/12 Q1017 NOSIG
Klart
Klart
  Visa detaljer för Dubai International Airport
Avstånd från stationen: OSO 8570kmRJTT - Tokyo International Airport
Uppdaterad: 2018-11-16 09:00
 Vind från varierande
Vind: varierande 4 km/h
Moln: Övervägande molnigt
Sikt: 10 km
Molninformation: Några få moln 914 m
Övervägande molnigt 1829 m
2018/11/16 08:00 RJTT 160800Z VRB02KT 9999 FEW030 BKN060 BKN/// 17/08 Q1019 NOSIG
Övervägande molnigt
Övervägande molnigt
  Visa detaljer för Tokyo International Airport
Avstånd från stationen: OSO 7125kmZBAA - Peking (Beijing Capital)
Uppdaterad: 2018-11-16 09:00
 Vind från V
Vind: V 11 km/h
Temperatur: 8°C
Vindavkylning: 6°C
Daggpunkt: -21°C
Luftfuktighet: 11%
Barometer: 1028 hPa
Summering: Klart
Sikt: mer än 10 km
2018/11/16 08:00 ZBAA 160800Z 27003MPS 170V330 CAVOK 08/M21 Q1028 NOSIG
Klart
Klart
  Visa detaljer för Peking (Beijing Capital)
VÄDER KURIOSA -  TemperatureYou can tell the temperature by counting the clicks a cricket makes in 15 seconds and adding 37!